Kettle River, Minnesota
Current Conditions -  °F | °C
As of 10:13 AM on Tuesday 21 Oct 2014 (Local Time) from KMZH Reporting Station
Overcast Overcast  
Wind Chill: 45°   Ceiling: 1800
Heat Index: 45°   Visibility: 10mi
Dew Point: 34°   Wind: 3mph
Humidity: 66%   Direction: 100°E
Pressure: 30.21"   Gusts: NA
Location:  46.49°N, 92.88°W
Report Text: KMZH 211513Z AUTO 10003KT 10SM OVC018 07/01 A3021 RMK AO2
Loading
Personal Weather Stations






























Interactive Weather Map
Tropical Storm Tracking
New forecast layout! Learn more

10-Day Weather Forecast

Advertisements
Track Severe Weather on mobile